createdAt,value
2018-08-23T00:00:23.627Z,1006.67
2018-08-23T00:01:04.075Z,1006.66
2018-08-23T00:01:44.418Z,1006.68
2018-08-23T00:02:24.862Z,1006.65
2018-08-23T00:03:05.286Z,1006.64
2018-08-23T00:03:45.675Z,1006.63
2018-08-23T00:04:26.042Z,1006.6
2018-08-23T00:05:06.413Z,1006.63
2018-08-23T00:05:46.872Z,1006.62
2018-08-23T00:06:27.264Z,1006.62
2018-08-23T00:07:07.632Z,1006.63
2018-08-23T00:07:48.062Z,1006.64
2018-08-23T00:08:28.485Z,1006.61
2018-08-23T00:09:08.912Z,1006.62
2018-08-23T00:09:49.310Z,1006.61
2018-08-23T00:10:29.740Z,1006.6
2018-08-23T00:11:10.106Z,1006.63
2018-08-23T00:11:50.499Z,1006.63
2018-08-23T00:12:30.922Z,1006.62
2018-08-23T00:13:11.311Z,1006.65
2018-08-23T00:13:51.727Z,1006.63
2018-08-23T00:14:32.101Z,1006.63
2018-08-23T00:15:12.545Z,1006.6
2018-08-23T00:15:52.918Z,1006.6
2018-08-23T00:16:33.378Z,1006.59
2018-08-23T00:17:13.733Z,1006.55
2018-08-23T00:17:54.113Z,1006.58
2018-08-23T00:18:34.520Z,1006.58
2018-08-23T00:19:14.906Z,1006.51
2018-08-23T00:19:55.295Z,1006.53
2018-08-23T00:20:35.670Z,1006.49
2018-08-23T00:21:16.045Z,1006.51
2018-08-23T00:21:56.441Z,1006.51
2018-08-23T00:22:36.883Z,1006.47
2018-08-23T00:23:17.297Z,1006.48
2018-08-23T00:23:57.681Z,1006.47
2018-08-23T00:24:38.036Z,1006.46
2018-08-23T00:25:18.485Z,1006.51
2018-08-23T00:25:58.909Z,1006.48
2018-08-23T00:26:39.259Z,1006.5
2018-08-23T00:27:19.696Z,1006.49
2018-08-23T00:28:00.069Z,1006.51
2018-08-23T00:28:40.462Z,1006.48
2018-08-23T00:29:20.893Z,1006.49
2018-08-23T00:30:01.254Z,1006.51
2018-08-23T00:30:41.664Z,1006.5
2018-08-23T00:31:22.036Z,1006.44
2018-08-23T00:32:02.449Z,1006.49
2018-08-23T00:32:42.864Z,1006.48
2018-08-23T00:33:23.254Z,1006.51
2018-08-23T00:34:03.659Z,1006.5
2018-08-23T00:34:44.053Z,1006.49
2018-08-23T00:35:24.446Z,1006.49
2018-08-23T00:36:04.878Z,1006.48
2018-08-23T00:36:45.281Z,1006.48
2018-08-23T00:37:25.698Z,1006.49
2018-08-23T00:38:06.147Z,1006.45
2018-08-23T00:38:46.539Z,1006.42
2018-08-23T00:39:26.974Z,1006.42
2018-08-23T00:40:07.385Z,1006.41
2018-08-23T00:42:05.173Z,1006.42
2018-08-23T00:42:45.473Z,1006.37
2018-08-23T00:45:14.337Z,1006.45
2018-08-23T00:45:54.788Z,1006.44
2018-08-23T00:46:35.195Z,1006.43
2018-08-23T00:47:15.568Z,1006.43
2018-08-23T00:47:55.991Z,1006.48
2018-08-23T00:48:36.333Z,1006.46
2018-08-23T00:49:16.720Z,1006.44
2018-08-23T00:49:57.183Z,1006.48
2018-08-23T00:50:37.617Z,1006.45
2018-08-23T00:51:18.014Z,1006.45
2018-08-23T00:51:58.383Z,1006.41
2018-08-23T00:52:38.822Z,1006.43
2018-08-23T00:53:19.195Z,1006.43
2018-08-23T00:53:59.543Z,1006.41
2018-08-23T00:54:39.968Z,1006.45
2018-08-23T00:55:20.400Z,1006.44
2018-08-23T00:56:00.744Z,1006.44
2018-08-23T00:56:41.137Z,1006.42
2018-08-23T00:57:21.530Z,1006.38
2018-08-23T00:58:01.960Z,1006.34
2018-08-23T00:58:42.360Z,1006.35
2018-08-23T00:59:22.702Z,1006.38
2018-08-23T01:00:03.103Z,1006.36
2018-08-23T01:00:43.473Z,1006.34
2018-08-23T01:01:23.905Z,1006.37
2018-08-23T01:02:04.324Z,1006.33
2018-08-23T01:02:44.675Z,1006.36
2018-08-23T01:03:25.134Z,1006.32
2018-08-23T01:04:05.489Z,1006.33
2018-08-23T01:04:45.915Z,1006.31
2018-08-23T01:05:26.296Z,1006.34
2018-08-23T01:06:06.687Z,1006.33
2018-08-23T01:06:47.086Z,1006.34
2018-08-23T01:07:27.501Z,1006.32
2018-08-23T01:08:07.937Z,1006.33
2018-08-23T01:08:48.350Z,1006.27
2018-08-23T01:09:28.743Z,1006.28
2018-08-23T01:10:09.167Z,1006.27
2018-08-23T01:10:49.527Z,1006.23
2018-08-23T01:11:29.937Z,1006.23
2018-08-23T01:12:10.392Z,1006.22
2018-08-23T01:12:50.843Z,1006.24
2018-08-23T01:13:31.213Z,1006.2
2018-08-23T01:14:11.678Z,1006.23
2018-08-23T01:14:52.089Z,1006.22
2018-08-23T01:15:32.442Z,1006.24
2018-08-23T01:16:12.830Z,1006.22
2018-08-23T01:16:53.253Z,1006.23
2018-08-23T01:17:33.616Z,1006.21
2018-08-23T01:18:14.020Z,1006.24
2018-08-23T01:18:54.394Z,1006.21
2018-08-23T01:19:34.776Z,1006.2
2018-08-23T01:20:15.213Z,1006.2
2018-08-23T01:20:55.585Z,1006.2
2018-08-23T01:21:35.941Z,1006.12
2018-08-23T01:22:16.477Z,1006.19
2018-08-23T01:22:56.816Z,1006.18
2018-08-23T01:23:37.231Z,1006.17
2018-08-23T01:24:17.592Z,1006.15
2018-08-23T01:24:58.026Z,1006.17
2018-08-23T01:25:38.356Z,1006.15
2018-08-23T01:26:18.800Z,1006.16
2018-08-23T01:26:59.160Z,1006.17
2018-08-23T01:27:39.587Z,1006.18
2018-08-23T01:28:19.961Z,1006.18
2018-08-23T01:29:00.384Z,1006.18
2018-08-23T01:29:40.763Z,1006.19
2018-08-23T01:30:21.112Z,1006.19
2018-08-23T01:31:01.486Z,1006.2
2018-08-23T01:31:41.903Z,1006.15
2018-08-23T01:32:22.338Z,1006.12
2018-08-23T01:33:02.658Z,1006.13
2018-08-23T01:33:43.075Z,1006.16
2018-08-23T01:34:23.520Z,1006.1
2018-08-23T01:35:03.923Z,1006.13
2018-08-23T01:35:44.313Z,1006.14
2018-08-23T01:36:24.707Z,1006.09
2018-08-23T01:37:05.090Z,1006.13
2018-08-23T01:37:45.512Z,1006.12
2018-08-23T01:38:25.910Z,1006.07
2018-08-23T01:39:06.292Z,1006.07
2018-08-23T01:39:46.702Z,1006.06
2018-08-23T01:40:27.064Z,1006.05
2018-08-23T01:41:07.471Z,1006.06
2018-08-23T01:41:47.873Z,1006.01
2018-08-23T01:42:28.278Z,1006.01
2018-08-23T01:43:08.626Z,1005.99
2018-08-23T01:43:49.084Z,1006
2018-08-23T01:44:29.491Z,1005.98
2018-08-23T01:45:09.903Z,1006
2018-08-23T01:45:50.310Z,1005.97
2018-08-23T01:46:30.718Z,1005.97
2018-08-23T01:47:11.145Z,1005.96
2018-08-23T01:47:51.488Z,1005.94
2018-08-23T01:48:31.960Z,1005.97
2018-08-23T01:49:12.370Z,1005.97
2018-08-23T01:49:52.758Z,1005.93
2018-08-23T01:50:33.210Z,1005.93
2018-08-23T01:51:13.564Z,1005.95
2018-08-23T01:51:53.964Z,1005.97
2018-08-23T01:52:34.407Z,1005.91
2018-08-23T01:53:14.805Z,1005.95
2018-08-23T01:53:55.185Z,1005.93
2018-08-23T01:54:35.566Z,1005.9
2018-08-23T01:55:15.960Z,1005.9
2018-08-23T01:55:56.458Z,1005.93
2018-08-23T01:56:36.809Z,1005.93
2018-08-23T01:57:17.238Z,1005.9
2018-08-23T01:57:57.605Z,1005.92
2018-08-23T01:58:37.980Z,1005.89
2018-08-23T01:59:18.345Z,1005.87
2018-08-23T01:59:58.713Z,1005.85
2018-08-23T02:00:39.160Z,1005.87
2018-08-23T02:01:19.583Z,1005.88
2018-08-23T02:01:59.950Z,1005.83
2018-08-23T02:02:40.396Z,1005.82
2018-08-23T02:03:20.765Z,1005.84
2018-08-23T02:04:01.205Z,1005.83
2018-08-23T02:04:41.642Z,1005.78
2018-08-23T02:05:22.009Z,1005.81
2018-08-23T02:06:02.443Z,1005.79
2018-08-23T02:06:42.875Z,1005.77
2018-08-23T02:07:23.226Z,1005.74
2018-08-23T02:08:03.588Z,1005.71
2018-08-23T02:08:43.988Z,1005.69
2018-08-23T02:09:24.439Z,1005.69
2018-08-23T02:10:04.818Z,1005.71
2018-08-23T02:10:45.233Z,1005.69
2018-08-23T02:11:25.651Z,1005.74
2018-08-23T02:12:06.026Z,1005.75
2018-08-23T02:12:46.452Z,1005.75
2018-08-23T02:13:26.840Z,1005.77
2018-08-23T02:14:07.270Z,1005.76
2018-08-23T02:14:47.588Z,1005.73
2018-08-23T02:15:28.059Z,1005.7
2018-08-23T02:16:08.455Z,1005.69
2018-08-23T02:16:48.955Z,1005.7
2018-08-23T02:17:29.264Z,1005.69
2018-08-23T02:18:09.708Z,1005.66
2018-08-23T02:18:50.093Z,1005.71
2018-08-23T02:19:30.520Z,1005.68
2018-08-23T02:20:10.941Z,1005.68
2018-08-23T02:20:51.338Z,1005.69
2018-08-23T02:21:31.712Z,1005.69
2018-08-23T02:22:12.126Z,1005.67
2018-08-23T02:22:52.618Z,1005.66
2018-08-23T02:23:32.899Z,1005.7
2018-08-23T02:24:13.377Z,1005.7
2018-08-23T02:24:53.731Z,1005.68
2018-08-23T02:25:34.170Z,1005.67
2018-08-23T02:26:14.600Z,1005.68
2018-08-23T02:26:55.031Z,1005.64
2018-08-23T02:27:35.397Z,1005.64
2018-08-23T02:28:15.846Z,1005.66
2018-08-23T02:28:56.214Z,1005.63
2018-08-23T02:29:36.569Z,1005.63
2018-08-23T02:30:16.997Z,1005.61
2018-08-23T02:30:57.371Z,1005.61
2018-08-23T02:31:37.751Z,1005.66
2018-08-23T02:32:18.179Z,1005.64
2018-08-23T02:32:58.585Z,1005.66
2018-08-23T02:33:39.052Z,1005.64
2018-08-23T02:34:19.436Z,1005.63
2018-08-23T02:34:59.878Z,1005.65
2018-08-23T02:35:40.286Z,1005.63
2018-08-23T02:36:20.669Z,1005.62
2018-08-23T02:37:01.060Z,1005.63
2018-08-23T02:37:41.472Z,1005.63
2018-08-23T02:38:21.919Z,1005.6
2018-08-23T02:39:02.274Z,1005.62
2018-08-23T02:39:42.622Z,1005.6
2018-08-23T02:40:23.124Z,1005.55
2018-08-23T02:41:03.485Z,1005.55
2018-08-23T02:41:43.944Z,1005.53
2018-08-23T02:42:24.276Z,1005.53
2018-08-23T02:43:04.748Z,1005.52
2018-08-23T02:43:45.122Z,1005.49
2018-08-23T02:44:25.499Z,1005.52
2018-08-23T02:45:05.902Z,1005.52
2018-08-23T02:45:46.309Z,1005.56
2018-08-23T02:46:26.666Z,1005.52
2018-08-23T02:47:07.099Z,1005.56
2018-08-23T02:47:47.469Z,1005.54
2018-08-23T02:48:27.885Z,1005.56
2018-08-23T02:49:08.348Z,1005.59
2018-08-23T02:49:48.708Z,1005.53
2018-08-23T02:50:29.096Z,1005.56
2018-08-23T02:51:09.548Z,1005.55
2018-08-23T02:51:49.934Z,1005.54
2018-08-23T02:52:30.342Z,1005.53
2018-08-23T02:53:10.738Z,1005.55
2018-08-23T02:53:51.149Z,1005.52
2018-08-23T02:54:31.524Z,1005.53
2018-08-23T02:55:11.907Z,1005.53
2018-08-23T02:55:52.313Z,1005.52
2018-08-23T02:56:32.724Z,1005.51
2018-08-23T02:57:13.090Z,1005.5
2018-08-23T02:57:53.527Z,1005.5
2018-08-23T02:58:33.977Z,1005.5
2018-08-23T02:59:14.337Z,1005.46
2018-08-23T02:59:54.703Z,1005.5
2018-08-23T03:00:35.226Z,1005.52
2018-08-23T03:01:15.547Z,1005.5
2018-08-23T03:01:55.921Z,1005.46
2018-08-23T03:02:36.309Z,1005.48
2018-08-23T03:03:16.763Z,1005.47
2018-08-23T03:03:57.153Z,1005.46
2018-08-23T03:04:37.528Z,1005.48
2018-08-23T03:05:17.950Z,1005.47
2018-08-23T03:05:58.347Z,1005.5
2018-08-23T03:06:38.764Z,1005.49
2018-08-23T03:07:19.173Z,1005.49
2018-08-23T03:07:59.602Z,1005.48
2018-08-23T03:08:39.997Z,1005.5
2018-08-23T03:09:20.402Z,1005.47
2018-08-23T03:10:00.813Z,1005.47
2018-08-23T03:10:41.226Z,1005.46
2018-08-23T03:11:21.643Z,1005.45
2018-08-23T03:12:02.061Z,1005.43
2018-08-23T03:12:42.420Z,1005.45
2018-08-23T03:13:22.837Z,1005.44
2018-08-23T03:14:03.296Z,1005.44
2018-08-23T03:14:43.607Z,1005.41
2018-08-23T03:15:24.060Z,1005.41
2018-08-23T03:16:04.507Z,1005.4
2018-08-23T03:16:44.897Z,1005.37
2018-08-23T03:17:25.306Z,1005.31
2018-08-23T03:18:05.685Z,1005.31
2018-08-23T03:18:46.036Z,1005.34
2018-08-23T03:19:26.428Z,1005.29
2018-08-23T03:20:06.815Z,1005.28
2018-08-23T03:20:47.173Z,1005.26
2018-08-23T03:21:27.579Z,1005.25
2018-08-23T03:22:08.044Z,1005.25
2018-08-23T03:22:48.471Z,1005.25
2018-08-23T03:23:28.861Z,1005.23
2018-08-23T03:24:09.245Z,1005.25
2018-08-23T03:24:49.632Z,1005.24
2018-08-23T03:25:30.018Z,1005.24
2018-08-23T03:26:10.460Z,1005.22
2018-08-23T03:26:50.883Z,1005.21
2018-08-23T03:27:31.253Z,1005.23
2018-08-23T03:28:11.657Z,1005.23
2018-08-23T03:28:52.049Z,1005.23
2018-08-23T03:29:32.415Z,1005.22
2018-08-23T03:30:12.816Z,1005.25
2018-08-23T03:30:53.242Z,1005.19
2018-08-23T03:31:33.696Z,1005.21
2018-08-23T03:32:14.095Z,1005.23
2018-08-23T03:32:54.503Z,1005.21
2018-08-23T03:33:34.884Z,1005.22
2018-08-23T03:34:15.263Z,1005.21
2018-08-23T03:34:55.647Z,1005.25
2018-08-23T03:35:36.062Z,1005.24
2018-08-23T03:36:16.469Z,1005.23
2018-08-23T03:36:56.890Z,1005.21
2018-08-23T03:37:37.287Z,1005.23
2018-08-23T03:38:17.713Z,1005.22
2018-08-23T03:38:58.164Z,1005.23
2018-08-23T03:39:38.505Z,1005.24
2018-08-23T03:40:18.941Z,1005.21
2018-08-23T03:40:59.375Z,1005.22
2018-08-23T03:41:39.796Z,1005.21
2018-08-23T03:42:20.295Z,1005.22
2018-08-23T03:43:00.707Z,1005.22
2018-08-23T03:43:41.088Z,1005.24
2018-08-23T03:44:21.508Z,1005.28
2018-08-23T03:45:01.883Z,1005.25
2018-08-23T03:45:42.264Z,1005.24
2018-08-23T03:46:22.704Z,1005.26
2018-08-23T03:47:03.056Z,1005.26
2018-08-23T03:47:43.455Z,1005.25
2018-08-23T03:48:23.865Z,1005.23
2018-08-23T03:49:04.291Z,1005.27
2018-08-23T03:49:44.695Z,1005.27
2018-08-23T03:50:25.093Z,1005.25
2018-08-23T03:51:05.528Z,1005.26
2018-08-23T03:51:45.926Z,1005.25
2018-08-23T03:52:26.377Z,1005.28
2018-08-23T03:53:06.737Z,1005.22
2018-08-23T03:53:47.132Z,1005.23
2018-08-23T03:54:27.536Z,1005.26
2018-08-23T03:55:07.936Z,1005.26
2018-08-23T03:55:48.347Z,1005.26
2018-08-23T03:56:28.762Z,1005.27
2018-08-23T03:57:09.116Z,1005.24
2018-08-23T03:57:49.502Z,1005.29
2018-08-23T03:58:29.920Z,1005.23
2018-08-23T03:59:10.307Z,1005.28
2018-08-23T03:59:50.776Z,1005.25
2018-08-23T04:00:31.117Z,1005.26
2018-08-23T04:01:11.455Z,1005.23
2018-08-23T04:01:51.923Z,1005.25
2018-08-23T04:02:32.329Z,1005.25
2018-08-23T04:03:12.776Z,1005.23
2018-08-23T04:03:53.141Z,1005.21
2018-08-23T04:04:33.546Z,1005.22
2018-08-23T04:05:14.028Z,1005.2
2018-08-23T04:05:54.342Z,1005.2
2018-08-23T04:06:34.796Z,1005.19
2018-08-23T04:07:15.168Z,1005.21
2018-08-23T04:07:55.529Z,1005.18
2018-08-23T04:08:36.012Z,1005.17
2018-08-23T04:09:16.373Z,1005.23
2018-08-23T04:09:56.801Z,1005.17
2018-08-23T04:10:37.229Z,1005.13
2018-08-23T04:11:17.602Z,1005.16
2018-08-23T04:11:57.957Z,1005.18
2018-08-23T04:12:38.358Z,1005.17
2018-08-23T04:13:18.750Z,1005.16
2018-08-23T04:13:59.216Z,1005.18
2018-08-23T04:14:39.623Z,1005.19
2018-08-23T04:15:20.037Z,1005.18
2018-08-23T04:16:00.490Z,1005.17
2018-08-23T04:16:40.919Z,1005.15
2018-08-23T04:17:21.356Z,1005.16
2018-08-23T04:18:01.757Z,1005.16
2018-08-23T04:18:42.225Z,1005.17
2018-08-23T04:19:22.646Z,1005.16
2018-08-23T04:20:03.030Z,1005.17
2018-08-23T04:20:43.461Z,1005.18
2018-08-23T04:21:23.854Z,1005.16
2018-08-23T04:22:04.294Z,1005.11
2018-08-23T04:22:44.716Z,1005.14
2018-08-23T04:23:25.073Z,1005.11
2018-08-23T04:24:05.529Z,1005.08
2018-08-23T04:24:45.880Z,1005.14
2018-08-23T04:25:26.343Z,1005.11
2018-08-23T04:26:06.689Z,1005.09
2018-08-23T04:26:47.079Z,1005.12
2018-08-23T04:27:27.492Z,1005.15
2018-08-23T04:28:07.904Z,1005.14
2018-08-23T05:20:55.663Z,1004.89
2018-08-23T05:23:20.631Z,1004.86
2018-08-23T05:24:12.867Z,1004.85
2018-08-23T05:25:05.450Z,1004.86
2018-08-23T05:25:57.878Z,1004.88
2018-08-23T05:26:50.415Z,1004.91
2018-08-23T05:27:42.519Z,1004.91
2018-08-23T05:28:36.457Z,1004.92
2018-08-23T05:29:28.859Z,1004.91
2018-08-23T05:30:22.124Z,1004.93
2018-08-23T05:31:25.290Z,1004.91
2018-08-23T05:32:17.584Z,1004.93
2018-08-23T05:36:33.440Z,1004.94
2018-08-23T05:37:25.709Z,1004.91
2018-08-23T05:38:18.005Z,1004.91
2018-08-23T05:39:09.851Z,1004.93
2018-08-23T05:40:02.172Z,1004.92
2018-08-23T05:40:54.376Z,1004.84
2018-08-23T05:41:33.948Z,1004.88
2018-08-23T05:42:14.410Z,1004.95
2018-08-23T05:42:54.918Z,1004.89
2018-08-23T05:43:35.307Z,1004.89
2018-08-23T05:44:15.701Z,1004.94
2018-08-23T05:44:56.529Z,1004.97
2018-08-23T05:45:37.183Z,1004.92
2018-08-23T05:46:17.497Z,1004.97
2018-08-23T05:46:57.927Z,1004.97
2018-08-23T05:47:38.389Z,1004.97
2018-08-23T05:48:18.859Z,1004.95
2018-08-23T05:48:59.200Z,1004.88
2018-08-23T05:49:39.770Z,1004.91
2018-08-23T05:50:20.255Z,1004.93
2018-08-23T05:51:00.725Z,1004.91
2018-08-23T05:51:41.301Z,1004.93
2018-08-23T05:52:21.775Z,1004.94
2018-08-23T05:53:02.424Z,1004.96
2018-08-23T05:53:42.854Z,1004.92
2018-08-23T05:54:23.370Z,1004.98
2018-08-23T05:55:03.802Z,1004.94
2018-08-23T05:55:44.227Z,1004.93
2018-08-23T05:56:24.795Z,1004.94
2018-08-23T05:57:05.170Z,1004.95
2018-08-23T05:57:45.532Z,1004.98
2018-08-23T05:58:26.006Z,1004.92
2018-08-23T05:59:06.557Z,1004.95
2018-08-23T05:59:46.918Z,1004.92
2018-08-23T06:00:42.156Z,1004.9
2018-08-23T06:01:22.699Z,1004.9
2018-08-23T06:02:03.178Z,1004.92
2018-08-23T06:02:43.873Z,1004.87
2018-08-23T06:03:24.960Z,1004.91
2018-08-23T06:04:05.520Z,1004.89
2018-08-23T06:04:46.274Z,1004.87
2018-08-23T06:05:26.893Z,1004.83
2018-08-23T06:06:07.425Z,1004.85
2018-08-23T06:06:48.311Z,1004.83
2018-08-23T06:07:29.088Z,1004.81
2018-08-23T06:08:11.012Z,1004.85
2018-08-23T06:08:51.558Z,1004.84
2018-08-23T06:09:33.170Z,1004.81
2018-08-23T06:10:15.233Z,1004.85
2018-08-23T06:10:55.322Z,1004.86
2018-08-23T06:11:35.944Z,1004.81
2018-08-23T06:12:17.116Z,1004.86
2018-08-23T06:12:57.407Z,1004.84
2018-08-23T06:13:38.429Z,1004.88
2018-08-23T06:14:19.614Z,1004.83
2018-08-23T06:15:00.292Z,1004.86
2018-08-23T06:15:41.144Z,1004.83
2018-08-23T06:16:21.692Z,1004.86
2018-08-23T06:17:02.282Z,1004.85
2018-08-23T06:17:44.127Z,1004.85
2018-08-23T06:18:25.892Z,1004.83
2018-08-23T06:19:07.812Z,1004.85
2018-08-23T06:19:48.582Z,1004.79
2018-08-23T06:20:28.788Z,1004.82
2018-08-23T06:21:10.105Z,1004.83
2018-08-23T06:21:50.140Z,1004.84
2018-08-23T06:22:31.618Z,1004.82
2018-08-23T06:23:12.418Z,1004.82
2018-08-23T06:23:53.107Z,1004.82
2018-08-23T06:24:33.838Z,1004.85
2018-08-23T06:25:14.248Z,1004.88
2018-08-23T06:25:54.672Z,1004.89
2018-08-23T06:26:35.129Z,1004.88
2018-08-23T06:27:15.600Z,1004.87
2018-08-23T06:27:55.974Z,1004.89
2018-08-23T06:28:36.429Z,1004.86
2018-08-23T06:29:16.826Z,1004.89
2018-08-23T06:29:57.255Z,1004.9
2018-08-23T06:30:37.661Z,1004.88
2018-08-23T06:31:18.149Z,1004.86
2018-08-23T06:31:58.771Z,1004.86
2018-08-23T06:32:39.238Z,1004.87
2018-08-23T06:33:19.750Z,1004.87
2018-08-23T06:34:00.035Z,1004.88
2018-08-23T06:34:40.407Z,1004.89
2018-08-23T06:35:21.127Z,1004.88
2018-08-23T06:36:01.526Z,1004.84
2018-08-23T06:36:41.889Z,1004.88
2018-08-23T06:37:22.822Z,1004.89
2018-08-23T06:38:02.889Z,1004.89
2018-08-23T06:38:43.378Z,1004.9
2018-08-23T06:39:23.839Z,1004.85
2018-08-23T06:40:04.260Z,1004.89
2018-08-23T06:40:44.658Z,1004.88
2018-08-23T06:41:25.067Z,1004.91
2018-08-23T06:42:05.476Z,1004.92
2018-08-23T06:42:45.876Z,1004.89
2018-08-23T06:43:26.289Z,1004.92
2018-08-23T06:44:06.735Z,1004.95
2018-08-23T06:44:47.106Z,1004.94
2018-08-23T06:45:27.512Z,1004.94
2018-08-23T06:46:08.048Z,1004.95
2018-08-23T06:46:48.622Z,1004.94
2018-08-23T06:47:29.009Z,1004.94
2018-08-23T06:48:09.457Z,1004.97
2018-08-23T06:48:49.860Z,1004.98
2018-08-23T06:49:30.252Z,1004.94
2018-08-23T06:50:10.839Z,1004.94
2018-08-23T06:50:51.290Z,1004.88
2018-08-23T06:51:31.742Z,1004.94
2018-08-23T06:52:12.865Z,1004.95
2018-08-23T06:53:03.032Z,1004.93
2018-08-23T06:53:59.601Z,1004.95
2018-08-23T06:54:41.179Z,1004.94
2018-08-23T06:55:22.944Z,1004.95
2018-08-23T06:56:03.591Z,1004.96
2018-08-23T06:56:44.204Z,1005
2018-08-23T06:57:24.617Z,1004.96
2018-08-23T06:58:05.079Z,1005
2018-08-23T06:58:45.636Z,1004.96
2018-08-23T06:59:26.041Z,1004.95
2018-08-23T07:00:06.590Z,1004.94
2018-08-23T07:00:55.266Z,1004.94
2018-08-23T07:01:35.915Z,1004.95
2018-08-23T07:02:16.309Z,1004.95
2018-08-23T07:02:56.817Z,1004.94
2018-08-23T07:03:37.141Z,1004.96
2018-08-23T07:04:17.646Z,1004.95
2018-08-23T07:04:58.030Z,1004.95
2018-08-23T07:05:38.393Z,1004.96
2018-08-23T07:06:18.885Z,1004.94
2018-08-23T07:06:59.369Z,1004.95
2018-08-23T07:07:39.754Z,1004.95
2018-08-23T07:08:20.128Z,1004.96
2018-08-23T07:09:00.570Z,1004.98
2018-08-23T07:09:41.006Z,1005
2018-08-23T07:10:21.494Z,1005.01
2018-08-23T07:12:43.263Z,1004.99
2018-08-23T07:13:35.515Z,1004.97
2018-08-23T07:14:28.593Z,1004.98
2018-08-23T07:15:21.080Z,1004.97
2018-08-23T07:16:13.360Z,1004.98
2018-08-23T07:17:06.811Z,1004.99
2018-08-23T07:18:01.670Z,1004.98
2018-08-23T07:18:56.288Z,1004.99
2018-08-23T07:19:48.143Z,1005.02
2018-08-23T07:20:40.804Z,1004.99
2018-08-23T07:21:33.701Z,1005.01
2018-08-23T07:24:14.546Z,1004.98
2018-08-23T07:26:22.619Z,1004.99
2018-08-23T07:27:14.471Z,1005.02
2018-08-23T07:28:06.588Z,1005.02
2018-08-23T07:28:59.755Z,1005.01
2018-08-23T07:29:50.012Z,1005.01
2018-08-23T07:30:29.825Z,1005.04
2018-08-23T07:31:10.364Z,1005.02
2018-08-23T07:33:48.984Z,1004.97
2018-08-23T07:34:42.742Z,1004.98
2018-08-23T07:35:35.580Z,1004.97
2018-08-23T07:38:21.540Z,1004.96
2018-08-23T07:39:14.556Z,1004.99
2018-08-23T07:40:07.461Z,1004.95
2018-08-23T07:40:59.450Z,1004.97
2018-08-23T07:41:43.468Z,1004.96
2018-08-23T07:42:23.843Z,1004.97
2018-08-23T07:43:04.351Z,1005.02
2018-08-23T07:43:45.244Z,1005
2018-08-23T07:44:25.335Z,1004.98
2018-08-23T07:45:05.721Z,1004.98
2018-08-23T07:45:46.320Z,1004.97
2018-08-23T07:46:27.134Z,1004.97
2018-08-23T07:47:07.629Z,1004.97
2018-08-23T07:47:48.031Z,1004.94
2018-08-23T07:48:28.751Z,1004.92
2018-08-23T07:49:09.123Z,1004.95
2018-08-23T07:49:49.679Z,1004.93
2018-08-23T07:50:30.174Z,1004.94
2018-08-23T07:51:10.605Z,1004.94
2018-08-23T07:51:54.652Z,1004.96
2018-08-23T07:52:35.906Z,1004.88
2018-08-23T07:53:15.861Z,1004.93
2018-08-23T07:53:56.429Z,1004.93
2018-08-23T07:54:36.612Z,1004.94
2018-08-23T07:55:17.148Z,1004.88
2018-08-23T07:55:57.504Z,1004.9
2018-08-23T07:56:38.050Z,1004.91
2018-08-23T07:57:18.534Z,1004.91
2018-08-23T07:57:59.362Z,1004.86
2018-08-23T07:58:39.872Z,1004.9
2018-08-23T07:59:20.286Z,1004.85
2018-08-23T08:00:00.814Z,1004.86
2018-08-23T08:00:41.645Z,1004.87
2018-08-23T08:01:22.505Z,1004.87
2018-08-23T08:02:03.627Z,1004.88
2018-08-23T08:02:44.482Z,1004.88
2018-08-23T08:03:25.128Z,1004.92
2018-08-23T08:04:05.908Z,1004.93
2018-08-23T08:04:46.276Z,1004.94
2018-08-23T08:05:26.722Z,1004.94
2018-08-23T08:06:07.532Z,1004.96
2018-08-23T08:06:47.837Z,1004.94
2018-08-23T08:07:28.186Z,1004.94
2018-08-23T08:08:08.625Z,1004.97
2018-08-23T08:08:48.991Z,1004.96
2018-08-23T08:09:29.535Z,1004.95
2018-08-23T08:10:10.194Z,1004.98
2018-08-23T08:10:50.702Z,1004.9
2018-08-23T08:11:31.396Z,1004.94
2018-08-23T08:12:11.847Z,1004.91
2018-08-23T08:12:52.244Z,1004.95
2018-08-23T08:13:32.962Z,1004.93
2018-08-23T08:14:13.210Z,1004.93
2018-08-23T08:14:54.426Z,1004.88
2018-08-23T08:15:34.208Z,1004.89
2018-08-23T08:16:14.863Z,1004.9
2018-08-23T08:16:55.478Z,1004.89
2018-08-23T08:17:36.164Z,1004.9
2018-08-23T08:18:16.517Z,1004.87
2018-08-23T08:19:08.835Z,1004.83
2018-08-23T08:19:49.609Z,1004.85
2018-08-23T08:20:30.102Z,1004.88
2018-08-23T08:21:10.580Z,1004.84
2018-08-23T08:21:50.983Z,1004.82
2018-08-23T08:22:31.491Z,1004.85
2018-08-23T08:23:11.904Z,1004.8
2018-08-23T08:24:03.994Z,1004.83
2018-08-23T08:26:06.613Z,1004.85
2018-08-23T08:27:00.130Z,1004.81
2018-08-23T08:27:52.951Z,1004.8
2018-08-23T08:28:45.837Z,1004.81
2018-08-23T08:29:38.991Z,1004.83
2018-08-23T08:30:32.333Z,1004.73
2018-08-23T08:31:30.983Z,1004.77
2018-08-23T08:34:03.103Z,1004.76
2018-08-23T08:36:32.656Z,1004.78
2018-08-23T08:37:24.709Z,1004.78
2018-08-23T08:38:18.688Z,1004.79
2018-08-23T08:39:12.477Z,1004.79
2018-08-23T08:40:05.161Z,1004.78
2018-08-23T08:40:55.838Z,1004.79
2018-08-23T08:41:42.143Z,1004.75
2018-08-23T08:42:22.251Z,1004.8
2018-08-23T08:43:02.733Z,1004.77
2018-08-23T08:43:43.070Z,1004.78
2018-08-23T08:44:23.574Z,1004.8
2018-08-23T08:45:04.016Z,1004.76
2018-08-23T08:45:46.338Z,1004.78
2018-08-23T08:46:27.763Z,1004.79
2018-08-23T08:47:14.497Z,1004.78
2018-08-23T08:47:54.764Z,1004.78
2018-08-23T08:48:35.270Z,1004.78
2018-08-23T08:49:16.394Z,1004.75
2018-08-23T08:49:58.128Z,1004.74
2018-08-23T08:50:38.592Z,1004.76
2018-08-23T08:51:18.994Z,1004.74
2018-08-23T08:52:01.762Z,1004.76
2018-08-23T08:52:42.753Z,1004.71
2018-08-23T08:55:32.831Z,1004.72
2018-08-23T08:56:13.953Z,1004.73
2018-08-23T08:58:49.517Z,1004.7
2018-08-23T08:59:56.321Z,1004.67
2018-08-23T09:01:24.378Z,1004.67
2018-08-23T09:02:27.788Z,1004.64
2018-08-23T09:03:25.975Z,1004.6
2018-08-23T09:04:26.763Z,1004.59
2018-08-23T09:09:21.869Z,1004.53
2018-08-23T09:10:16.907Z,1004.51
2018-08-23T09:15:05.683Z,1004.48
2018-08-23T09:16:11.169Z,1004.43
2018-08-23T09:17:13.517Z,1004.51
2018-08-23T09:18:11.516Z,1004.51
2018-08-23T09:19:07.630Z,1004.49
2018-08-23T09:20:05.319Z,1004.5
2018-08-23T09:21:04.231Z,1004.45
2018-08-23T09:22:04.729Z,1004.46
2018-08-23T09:23:13.201Z,1004.47
2018-08-23T09:24:19.540Z,1004.36
2018-08-23T09:25:16.804Z,1004.44
2018-08-23T09:26:17.883Z,1004.48
2018-08-23T09:27:24.549Z,1004.44
2018-08-23T09:33:59.244Z,1004.49
2018-08-23T09:41:06.295Z,1004.46
2018-08-23T09:42:20.610Z,1004.47
2018-08-23T09:43:22.852Z,1004.44
2018-08-23T09:44:40.399Z,1004.44
2018-08-23T09:45:55.661Z,1004.41
2018-08-23T09:48:36.938Z,1004.35
2018-08-23T09:55:54.485Z,1004.3
2018-08-23T09:56:35.088Z,1004.32
2018-08-23T09:57:15.757Z,1004.3
2018-08-23T09:57:56.527Z,1004.32
2018-08-23T09:58:36.836Z,1004.29
2018-08-23T09:59:17.708Z,1004.25
2018-08-23T09:59:59.107Z,1004.25
2018-08-23T10:00:39.987Z,1004.23
2018-08-23T10:01:20.531Z,1004.27
2018-08-23T10:02:05.470Z,1004.29
2018-08-23T10:02:46.834Z,1004.29
2018-08-23T10:03:33.731Z,1004.28
2018-08-23T10:04:14.408Z,1004.25
2018-08-23T10:04:54.789Z,1004.25
2018-08-23T10:05:35.677Z,1004.24
2018-08-23T10:06:16.071Z,1004.21
2018-08-23T10:06:56.607Z,1004.21
2018-08-23T10:07:37.356Z,1004.19
2018-08-23T10:08:18.729Z,1004.22
2018-08-23T10:08:59.288Z,1004.2
2018-08-23T10:09:45.682Z,1004.19
2018-08-23T10:10:28.253Z,1004.13
2018-08-23T10:11:09.333Z,1004.09
2018-08-23T10:11:54.972Z,1004.08
2018-08-23T10:12:38.586Z,1004.07
2018-08-23T10:13:19.479Z,1004.08
2018-08-23T10:14:00.095Z,1004.06
2018-08-23T10:14:40.808Z,1004.16
2018-08-23T10:15:21.312Z,1004.08
2018-08-23T10:16:02.436Z,1004.07
2018-08-23T10:19:57.448Z,1004
2018-08-23T10:20:52.652Z,1003.98
2018-08-23T10:23:26.047Z,1003.96
2018-08-23T10:24:26.451Z,1003.99
2018-08-23T10:25:32.144Z,1004
2018-08-23T10:28:06.612Z,1003.9